sensor_id;sensor_type;location;lat;lon;timestamp;P1;durP1;ratioP1;P2;durP2;ratioP2
9374;SDS011;4727;51.202;6.344;2023-08-31T00:02:03;1.77;;;1.67;;
9374;SDS011;4727;51.202;6.344;2023-08-31T00:04:29;2.47;;;2.10;;
9374;SDS011;4727;51.202;6.344;2023-08-31T00:06:55;3.37;;;1.83;;
9374;SDS011;4727;51.202;6.344;2023-08-31T00:09:22;3.67;;;2.33;;
9374;SDS011;4727;51.202;6.344;2023-08-31T00:11:50;2.17;;;2.07;;
9374;SDS011;4727;51.202;6.344;2023-08-31T00:14:16;1.73;;;1.63;;
9374;SDS011;4727;51.202;6.344;2023-08-31T00:16:43;2.00;;;1.90;;
9374;SDS011;4727;51.202;6.344;2023-08-31T00:19:11;1.80;;;1.70;;
9374;SDS011;4727;51.202;6.344;2023-08-31T00:21:37;1.97;;;1.83;;
9374;SDS011;4727;51.202;6.344;2023-08-31T00:24:03;3.97;;;1.93;;
9374;SDS011;4727;51.202;6.344;2023-08-31T00:26:29;2.40;;;2.30;;
9374;SDS011;4727;51.202;6.344;2023-08-31T00:28:56;2.63;;;2.40;;
9374;SDS011;4727;51.202;6.344;2023-08-31T00:31:23;2.47;;;2.27;;
9374;SDS011;4727;51.202;6.344;2023-08-31T00:33:49;2.50;;;2.30;;
9374;SDS011;4727;51.202;6.344;2023-08-31T00:36:15;2.13;;;2.03;;
9374;SDS011;4727;51.202;6.344;2023-08-31T00:38:43;3.80;;;2.20;;
9374;SDS011;4727;51.202;6.344;2023-08-31T00:41:09;3.80;;;1.77;;
9374;SDS011;4727;51.202;6.344;2023-08-31T00:43:35;6.30;;;3.00;;
9374;SDS011;4727;51.202;6.344;2023-08-31T00:46:01;2.70;;;2.47;;
9374;SDS011;4727;51.202;6.344;2023-08-31T00:48:27;3.70;;;2.53;;
9374;SDS011;4727;51.202;6.344;2023-08-31T00:50:53;1.93;;;1.83;;
9374;SDS011;4727;51.202;6.344;2023-08-31T00:53:20;5.53;;;2.90;;
9374;SDS011;4727;51.202;6.344;2023-08-31T00:55:46;1.60;;;1.50;;
9374;SDS011;4727;51.202;6.344;2023-08-31T00:58:12;1.80;;;1.70;;
9374;SDS011;4727;51.202;6.344;2023-08-31T01:03:22;2.10;;;2.00;;
9374;SDS011;4727;51.202;6.344;2023-08-31T01:06:36;2.50;;;2.30;;
9374;SDS011;4727;51.202;6.344;2023-08-31T01:14:11;2.23;;;2.03;;
9374;SDS011;4727;51.202;6.344;2023-08-31T01:16:43;3.00;;;2.27;;
9374;SDS011;4727;51.202;6.344;2023-08-31T01:19:58;2.30;;;2.20;;
9374;SDS011;4727;51.202;6.344;2023-08-31T01:22:09;2.47;;;2.27;;
9374;SDS011;4727;51.202;6.344;2023-08-31T01:24:39;2.63;;;1.77;;
9374;SDS011;4727;51.202;6.344;2023-08-31T01:27:06;1.77;;;1.67;;
9374;SDS011;4727;51.202;6.344;2023-08-31T01:29:32;1.90;;;1.60;;
9374;SDS011;4727;51.202;6.344;2023-08-31T01:31:58;1.87;;;1.77;;
9374;SDS011;4727;51.202;6.344;2023-08-31T01:34:24;3.37;;;2.17;;
9374;SDS011;4727;51.202;6.344;2023-08-31T01:36:52;2.17;;;1.97;;
9374;SDS011;4727;51.202;6.344;2023-08-31T01:39:26;2.13;;;1.93;;
9374;SDS011;4727;51.202;6.344;2023-08-31T01:42:03;2.30;;;2.10;;
9374;SDS011;4727;51.202;6.344;2023-08-31T01:44:32;3.20;;;2.10;;
9374;SDS011;4727;51.202;6.344;2023-08-31T01:47:03;1.60;;;1.50;;
9374;SDS011;4727;51.202;6.344;2023-08-31T01:49:37;3.13;;;1.40;;
9374;SDS011;4727;51.202;6.344;2023-08-31T01:52:06;2.00;;;1.90;;
9374;SDS011;4727;51.202;6.344;2023-08-31T01:54:32;4.43;;;1.97;;
9374;SDS011;4727;51.202;6.344;2023-08-31T01:56:58;1.80;;;1.70;;
9374;SDS011;4727;51.202;6.344;2023-08-31T01:59:24;1.70;;;1.60;;
9374;SDS011;4727;51.202;6.344;2023-08-31T02:01:51;1.70;;;1.60;;
9374;SDS011;4727;51.202;6.344;2023-08-31T02:04:17;1.97;;;1.80;;
9374;SDS011;4727;51.202;6.344;2023-08-31T02:06:43;1.20;;;1.20;;
9374;SDS011;4727;51.202;6.344;2023-08-31T02:09:09;2.13;;;2.03;;
9374;SDS011;4727;51.202;6.344;2023-08-31T02:11:35;1.67;;;1.57;;
9374;SDS011;4727;51.202;6.344;2023-08-31T02:14:03;1.43;;;1.33;;
9374;SDS011;4727;51.202;6.344;2023-08-31T02:16:29;1.50;;;1.40;;
9374;SDS011;4727;51.202;6.344;2023-08-31T02:18:56;2.37;;;1.70;;
9374;SDS011;4727;51.202;6.344;2023-08-31T02:21:22;1.57;;;1.47;;
9374;SDS011;4727;51.202;6.344;2023-08-31T02:23:48;2.00;;;1.90;;
9374;SDS011;4727;51.202;6.344;2023-08-31T02:26:14;1.63;;;1.30;;
9374;SDS011;4727;51.202;6.344;2023-08-31T02:28:40;1.47;;;1.43;;
9374;SDS011;4727;51.202;6.344;2023-08-31T02:31:06;1.10;;;1.10;;
9374;SDS011;4727;51.202;6.344;2023-08-31T02:33:32;1.50;;;1.40;;
9374;SDS011;4727;51.202;6.344;2023-08-31T02:35:58;1.93;;;1.83;;
9374;SDS011;4727;51.202;6.344;2023-08-31T02:38:24;1.23;;;1.10;;
9374;SDS011;4727;51.202;6.344;2023-08-31T02:40:51;3.17;;;1.97;;
9374;SDS011;4727;51.202;6.344;2023-08-31T02:43:17;1.90;;;1.80;;
9374;SDS011;4727;51.202;6.344;2023-08-31T02:45:43;2.07;;;1.57;;
9374;SDS011;4727;51.202;6.344;2023-08-31T02:48:09;0.80;;;0.80;;
9374;SDS011;4727;51.202;6.344;2023-08-31T02:50:35;1.37;;;1.27;;
9374;SDS011;4727;51.202;6.344;2023-08-31T02:53:01;2.43;;;1.80;;
9374;SDS011;4727;51.202;6.344;2023-08-31T02:55:27;2.80;;;1.93;;
9374;SDS011;4727;51.202;6.344;2023-08-31T02:57:53;1.37;;;1.27;;
9374;SDS011;4727;51.202;6.344;2023-08-31T03:00:19;2.67;;;1.77;;
9374;SDS011;4727;51.202;6.344;2023-08-31T03:02:48;1.53;;;1.43;;
9374;SDS011;4727;51.202;6.344;2023-08-31T03:05:18;1.83;;;1.73;;
9374;SDS011;4727;51.202;6.344;2023-08-31T03:07:46;3.40;;;1.57;;
9374;SDS011;4727;51.202;6.344;2023-08-31T03:10:12;2.00;;;1.90;;
9374;SDS011;4727;51.202;6.344;2023-08-31T03:12:38;2.70;;;2.50;;
9374;SDS011;4727;51.202;6.344;2023-08-31T03:15:04;3.30;;;1.63;;
9374;SDS011;4727;51.202;6.344;2023-08-31T03:17:31;2.00;;;1.80;;
9374;SDS011;4727;51.202;6.344;2023-08-31T03:19:57;2.30;;;2.10;;
9374;SDS011;4727;51.202;6.344;2023-08-31T03:22:23;2.07;;;1.87;;
9374;SDS011;4727;51.202;6.344;2023-08-31T03:24:49;4.13;;;1.87;;
9374;SDS011;4727;51.202;6.344;2023-08-31T03:27:15;2.30;;;2.10;;
9374;SDS011;4727;51.202;6.344;2023-08-31T03:29:41;1.83;;;1.73;;
9374;SDS011;4727;51.202;6.344;2023-08-31T03:32:07;1.73;;;1.63;;
9374;SDS011;4727;51.202;6.344;2023-08-31T03:34:33;2.47;;;2.13;;
9374;SDS011;4727;51.202;6.344;2023-08-31T03:36:59;2.60;;;2.40;;
9374;SDS011;4727;51.202;6.344;2023-08-31T03:39:25;5.50;;;2.23;;
9374;SDS011;4727;51.202;6.344;2023-08-31T03:41:51;2.40;;;2.20;;
9374;SDS011;4727;51.202;6.344;2023-08-31T03:44:17;4.13;;;2.33;;
9374;SDS011;4727;51.202;6.344;2023-08-31T03:46:43;1.70;;;1.60;;
9374;SDS011;4727;51.202;6.344;2023-08-31T03:49:09;2.03;;;1.87;;
9374;SDS011;4727;51.202;6.344;2023-08-31T03:51:35;2.97;;;2.67;;
9374;SDS011;4727;51.202;6.344;2023-08-31T03:54:01;3.53;;;2.07;;
9374;SDS011;4727;51.202;6.344;2023-08-31T03:56:27;1.90;;;1.80;;
9374;SDS011;4727;51.202;6.344;2023-08-31T03:58:53;4.47;;;3.03;;
9374;SDS011;4727;51.202;6.344;2023-08-31T04:01:19;2.43;;;2.27;;
9374;SDS011;4727;51.202;6.344;2023-08-31T04:03:45;3.07;;;2.40;;
9374;SDS011;4727;51.202;6.344;2023-08-31T04:06:11;2.20;;;2.10;;
9374;SDS011;4727;51.202;6.344;2023-08-31T04:08:37;2.80;;;2.33;;
9374;SDS011;4727;51.202;6.344;2023-08-31T04:11:03;2.37;;;2.17;;
9374;SDS011;4727;51.202;6.344;2023-08-31T04:13:29;2.27;;;2.10;;
9374;SDS011;4727;51.202;6.344;2023-08-31T04:15:55;4.83;;;2.70;;
9374;SDS011;4727;51.202;6.344;2023-08-31T04:18:21;2.53;;;2.20;;
9374;SDS011;4727;51.202;6.344;2023-08-31T04:20:51;5.20;;;2.60;;
9374;SDS011;4727;51.202;6.344;2023-08-31T04:23:18;3.53;;;2.60;;
9374;SDS011;4727;51.202;6.344;2023-08-31T04:25:45;2.60;;;2.40;;
9374;SDS011;4727;51.202;6.344;2023-08-31T04:28:12;2.27;;;2.17;;
9374;SDS011;4727;51.202;6.344;2023-08-31T04:30:39;8.80;;;3.60;;
9374;SDS011;4727;51.202;6.344;2023-08-31T04:33:06;2.10;;;2.00;;
9374;SDS011;4727;51.202;6.344;2023-08-31T04:35:32;2.87;;;2.67;;
9374;SDS011;4727;51.202;6.344;2023-08-31T04:37:58;2.90;;;2.70;;
9374;SDS011;4727;51.202;6.344;2023-08-31T04:40:24;3.43;;;2.73;;
9374;SDS011;4727;51.202;6.344;2023-08-31T04:42:50;8.33;;;2.50;;
9374;SDS011;4727;51.202;6.344;2023-08-31T04:45:16;2.67;;;2.47;;
9374;SDS011;4727;51.202;6.344;2023-08-31T04:47:42;3.67;;;2.70;;
9374;SDS011;4727;51.202;6.344;2023-08-31T04:50:09;3.40;;;3.10;;
9374;SDS011;4727;51.202;6.344;2023-08-31T04:52:35;3.53;;;3.00;;
9374;SDS011;4727;51.202;6.344;2023-08-31T04:55:01;3.13;;;2.90;;
9374;SDS011;4727;51.202;6.344;2023-08-31T04:57:28;3.30;;;3.00;;
9374;SDS011;4727;51.202;6.344;2023-08-31T04:59:54;5.17;;;2.87;;
9374;SDS011;4727;51.202;6.344;2023-08-31T05:02:20;3.90;;;3.37;;
9374;SDS011;4727;51.202;6.344;2023-08-31T05:04:46;3.40;;;3.10;;
9374;SDS011;4727;51.202;6.344;2023-08-31T05:07:12;3.23;;;2.93;;
9374;SDS011;4727;51.202;6.344;2023-08-31T05:09:38;2.97;;;2.63;;
9374;SDS011;4727;51.202;6.344;2023-08-31T05:12:04;3.50;;;3.20;;
9374;SDS011;4727;51.202;6.344;2023-08-31T05:14:32;3.67;;;3.37;;
9374;SDS011;4727;51.202;6.344;2023-08-31T05:17:02;3.80;;;3.17;;
9374;SDS011;4727;51.202;6.344;2023-08-31T05:19:28;3.87;;;3.03;;
9374;SDS011;4727;51.202;6.344;2023-08-31T05:21:54;6.23;;;3.73;;
9374;SDS011;4727;51.202;6.344;2023-08-31T05:24:20;5.40;;;3.40;;
9374;SDS011;4727;51.202;6.344;2023-08-31T05:26:46;3.53;;;3.23;;
9374;SDS011;4727;51.202;6.344;2023-08-31T05:29:12;7.13;;;3.90;;
9374;SDS011;4727;51.202;6.344;2023-08-31T05:31:38;5.03;;;3.50;;
9374;SDS011;4727;51.202;6.344;2023-08-31T05:34:04;4.03;;;3.70;;
9374;SDS011;4727;51.202;6.344;2023-08-31T05:36:29;4.40;;;3.40;;
9374;SDS011;4727;51.202;6.344;2023-08-31T05:38:55;3.40;;;3.10;;
9374;SDS011;4727;51.202;6.344;2023-08-31T05:41:21;3.77;;;2.97;;
9374;SDS011;4727;51.202;6.344;2023-08-31T05:43:48;4.10;;;3.30;;
9374;SDS011;4727;51.202;6.344;2023-08-31T05:46:14;4.60;;;3.53;;
9374;SDS011;4727;51.202;6.344;2023-08-31T05:48:40;5.30;;;3.47;;
9374;SDS011;4727;51.202;6.344;2023-08-31T05:51:06;4.43;;;3.93;;
9374;SDS011;4727;51.202;6.344;2023-08-31T05:53:32;3.50;;;3.20;;
9374;SDS011;4727;51.202;6.344;2023-08-31T05:55:59;5.93;;;4.10;;
9374;SDS011;4727;51.202;6.344;2023-08-31T05:58:32;3.43;;;3.13;;
9374;SDS011;4727;51.202;6.344;2023-08-31T06:00:59;5.00;;;3.63;;
9374;SDS011;4727;51.202;6.344;2023-08-31T06:03:25;3.33;;;3.03;;
9374;SDS011;4727;51.202;6.344;2023-08-31T06:05:51;4.43;;;3.27;;
9374;SDS011;4727;51.202;6.344;2023-08-31T06:08:17;3.83;;;3.53;;
9374;SDS011;4727;51.202;6.344;2023-08-31T06:10:43;4.40;;;3.43;;
9374;SDS011;4727;51.202;6.344;2023-08-31T06:13:09;4.53;;;3.63;;
9374;SDS011;4727;51.202;6.344;2023-08-31T06:15:35;3.80;;;3.47;;
9374;SDS011;4727;51.202;6.344;2023-08-31T06:18:01;4.73;;;3.10;;
9374;SDS011;4727;51.202;6.344;2023-08-31T06:20:27;3.80;;;3.50;;
9374;SDS011;4727;51.202;6.344;2023-08-31T06:22:53;3.93;;;3.53;;
9374;SDS011;4727;51.202;6.344;2023-08-31T06:25:19;3.77;;;3.47;;
9374;SDS011;4727;51.202;6.344;2023-08-31T06:27:47;4.43;;;3.07;;
9374;SDS011;4727;51.202;6.344;2023-08-31T06:30:13;6.50;;;3.97;;
9374;SDS011;4727;51.202;6.344;2023-08-31T06:32:46;4.17;;;3.77;;
9374;SDS011;4727;51.202;6.344;2023-08-31T06:35:12;3.90;;;3.10;;
9374;SDS011;4727;51.202;6.344;2023-08-31T06:37:39;3.87;;;2.67;;
9374;SDS011;4727;51.202;6.344;2023-08-31T06:40:08;3.10;;;2.90;;
9374;SDS011;4727;51.202;6.344;2023-08-31T06:42:38;3.40;;;3.10;;
9374;SDS011;4727;51.202;6.344;2023-08-31T06:45:04;7.67;;;3.23;;
9374;SDS011;4727;51.202;6.344;2023-08-31T06:47:31;4.07;;;3.07;;
9374;SDS011;4727;51.202;6.344;2023-08-31T06:49:58;3.23;;;2.67;;
9374;SDS011;4727;51.202;6.344;2023-08-31T06:52:24;4.53;;;3.10;;
9374;SDS011;4727;51.202;6.344;2023-08-31T06:54:51;3.43;;;2.87;;
9374;SDS011;4727;51.202;6.344;2023-08-31T06:57:20;4.73;;;2.40;;
9374;SDS011;4727;51.202;6.344;2023-08-31T06:59:47;3.33;;;3.10;;
9374;SDS011;4727;51.202;6.344;2023-08-31T07:02:13;2.87;;;2.07;;
9374;SDS011;4727;51.202;6.344;2023-08-31T07:04:39;2.40;;;2.20;;
9374;SDS011;4727;51.202;6.344;2023-08-31T07:07:05;2.93;;;2.77;;
9374;SDS011;4727;51.202;6.344;2023-08-31T07:09:33;2.50;;;2.30;;
9374;SDS011;4727;51.202;6.344;2023-08-31T07:11:59;3.40;;;2.83;;
9374;SDS011;4727;51.202;6.344;2023-08-31T07:14:26;4.70;;;3.20;;
9374;SDS011;4727;51.202;6.344;2023-08-31T07:16:52;2.97;;;2.77;;
9374;SDS011;4727;51.202;6.344;2023-08-31T07:19:18;2.63;;;2.43;;
9374;SDS011;4727;51.202;6.344;2023-08-31T07:21:44;2.67;;;2.47;;
9374;SDS011;4727;51.202;6.344;2023-08-31T07:24:11;3.77;;;3.07;;
9374;SDS011;4727;51.202;6.344;2023-08-31T07:26:37;3.67;;;2.67;;
9374;SDS011;4727;51.202;6.344;2023-08-31T07:29:03;2.67;;;2.30;;
9374;SDS011;4727;51.202;6.344;2023-08-31T07:31:30;4.07;;;2.80;;
9374;SDS011;4727;51.202;6.344;2023-08-31T07:33:56;3.03;;;2.17;;
9374;SDS011;4727;51.202;6.344;2023-08-31T07:36:22;3.20;;;2.30;;
9374;SDS011;4727;51.202;6.344;2023-08-31T07:38:48;3.20;;;2.30;;
9374;SDS011;4727;51.202;6.344;2023-08-31T07:41:14;2.50;;;2.40;;
9374;SDS011;4727;51.202;6.344;2023-08-31T07:43:40;2.93;;;2.63;;
9374;SDS011;4727;51.202;6.344;2023-08-31T07:46:06;1.80;;;1.70;;
9374;SDS011;4727;51.202;6.344;2023-08-31T07:48:32;2.87;;;2.50;;
9374;SDS011;4727;51.202;6.344;2023-08-31T07:50:58;2.80;;;2.40;;
9374;SDS011;4727;51.202;6.344;2023-08-31T07:53:24;2.63;;;2.43;;
9374;SDS011;4727;51.202;6.344;2023-08-31T07:55:53;2.63;;;1.90;;
9374;SDS011;4727;51.202;6.344;2023-08-31T07:58:20;3.00;;;2.40;;
9374;SDS011;4727;51.202;6.344;2023-08-31T08:00:46;3.90;;;2.33;;
9374;SDS011;4727;51.202;6.344;2023-08-31T08:03:12;1.87;;;1.73;;
9374;SDS011;4727;51.202;6.344;2023-08-31T08:05:39;2.80;;;2.60;;
9374;SDS011;4727;51.202;6.344;2023-08-31T08:08:05;2.37;;;2.07;;
9374;SDS011;4727;51.202;6.344;2023-08-31T08:10:31;2.00;;;1.90;;
9374;SDS011;4727;51.202;6.344;2023-08-31T08:12:57;3.70;;;2.03;;
9374;SDS011;4727;51.202;6.344;2023-08-31T08:15:24;2.13;;;1.90;;
9374;SDS011;4727;51.202;6.344;2023-08-31T08:17:50;2.47;;;2.27;;
9374;SDS011;4727;51.202;6.344;2023-08-31T08:20:18;3.67;;;2.00;;
9374;SDS011;4727;51.202;6.344;2023-08-31T08:22:44;2.03;;;1.93;;
9374;SDS011;4727;51.202;6.344;2023-08-31T08:25:12;3.63;;;2.97;;
9374;SDS011;4727;51.202;6.344;2023-08-31T08:27:38;1.70;;;1.60;;
9374;SDS011;4727;51.202;6.344;2023-08-31T08:30:04;2.27;;;2.07;;
9374;SDS011;4727;51.202;6.344;2023-08-31T08:32:31;2.43;;;2.23;;
9374;SDS011;4727;51.202;6.344;2023-08-31T08:34:58;6.77;;;2.50;;
9374;SDS011;4727;51.202;6.344;2023-08-31T08:37:24;2.23;;;2.03;;
9374;SDS011;4727;51.202;6.344;2023-08-31T08:39:50;4.07;;;2.27;;
9374;SDS011;4727;51.202;6.344;2023-08-31T08:42:17;4.27;;;1.77;;
9374;SDS011;4727;51.202;6.344;2023-08-31T08:44:44;3.13;;;2.37;;
9374;SDS011;4727;51.202;6.344;2023-08-31T08:47:11;4.37;;;2.50;;
9374;SDS011;4727;51.202;6.344;2023-08-31T08:49:37;2.13;;;1.70;;
9374;SDS011;4727;51.202;6.344;2023-08-31T08:52:03;2.00;;;1.90;;
9374;SDS011;4727;51.202;6.344;2023-08-31T08:54:30;2.27;;;1.80;;
9374;SDS011;4727;51.202;6.344;2023-08-31T08:56:56;1.93;;;1.83;;
9374;SDS011;4727;51.202;6.344;2023-08-31T08:59:23;2.17;;;2.07;;
9374;SDS011;4727;51.202;6.344;2023-08-31T09:01:49;2.57;;;2.27;;
9374;SDS011;4727;51.202;6.344;2023-08-31T09:04:15;2.07;;;1.87;;
9374;SDS011;4727;51.202;6.344;2023-08-31T09:06:41;1.93;;;1.83;;
9374;SDS011;4727;51.202;6.344;2023-08-31T09:09:09;2.00;;;1.67;;
9374;SDS011;4727;51.202;6.344;2023-08-31T09:11:35;2.93;;;2.77;;
9374;SDS011;4727;51.202;6.344;2023-08-31T09:14:17;3.90;;;2.07;;
9374;SDS011;4727;51.202;6.344;2023-08-31T09:16:45;2.13;;;2.03;;
9374;SDS011;4727;51.202;6.344;2023-08-31T09:19:21;3.57;;;2.07;;
9374;SDS011;4727;51.202;6.344;2023-08-31T09:21:48;5.73;;;2.23;;
9374;SDS011;4727;51.202;6.344;2023-08-31T09:24:15;2.77;;;1.87;;
9374;SDS011;4727;51.202;6.344;2023-08-31T09:26:44;1.50;;;1.40;;
9374;SDS011;4727;51.202;6.344;2023-08-31T09:29:15;1.87;;;1.57;;
9374;SDS011;4727;51.202;6.344;2023-08-31T09:31:41;2.23;;;1.57;;
9374;SDS011;4727;51.202;6.344;2023-08-31T09:34:08;2.33;;;1.73;;
9374;SDS011;4727;51.202;6.344;2023-08-31T09:36:34;2.30;;;1.60;;
9374;SDS011;4727;51.202;6.344;2023-08-31T09:39:00;1.70;;;1.60;;
9374;SDS011;4727;51.202;6.344;2023-08-31T09:41:26;2.70;;;1.67;;
9374;SDS011;4727;51.202;6.344;2023-08-31T09:43:52;2.20;;;2.07;;
9374;SDS011;4727;51.202;6.344;2023-08-31T09:46:18;2.50;;;2.07;;
9374;SDS011;4727;51.202;6.344;2023-08-31T09:48:46;2.03;;;1.93;;
9374;SDS011;4727;51.202;6.344;2023-08-31T09:51:13;2.00;;;1.90;;
9374;SDS011;4727;51.202;6.344;2023-08-31T09:53:42;2.20;;;2.03;;
9374;SDS011;4727;51.202;6.344;2023-08-31T09:56:08;1.77;;;1.67;;
9374;SDS011;4727;51.202;6.344;2023-08-31T09:58:43;1.70;;;1.60;;
9374;SDS011;4727;51.202;6.344;2023-08-31T10:01:09;1.90;;;1.80;;
9374;SDS011;4727;51.202;6.344;2023-08-31T10:03:35;1.70;;;1.60;;
9374;SDS011;4727;51.202;6.344;2023-08-31T10:06:01;2.07;;;1.97;;
9374;SDS011;4727;51.202;6.344;2023-08-31T10:08:27;2.40;;;2.20;;
9374;SDS011;4727;51.202;6.344;2023-08-31T10:10:57;2.33;;;1.90;;
9374;SDS011;4727;51.202;6.344;2023-08-31T10:13:24;2.60;;;2.40;;
9374;SDS011;4727;51.202;6.344;2023-08-31T10:15:51;2.97;;;2.27;;
9374;SDS011;4727;51.202;6.344;2023-08-31T10:18:18;2.17;;;1.97;;
9374;SDS011;4727;51.202;6.344;2023-08-31T10:20:44;2.23;;;1.90;;
9374;SDS011;4727;51.202;6.344;2023-08-31T10:23:11;2.63;;;1.87;;
9374;SDS011;4727;51.202;6.344;2023-08-31T10:25:59;2.37;;;2.03;;
9374;SDS011;4727;51.202;6.344;2023-08-31T10:28:25;2.30;;;1.90;;
9374;SDS011;4727;51.202;6.344;2023-08-31T10:33:30;3.10;;;2.10;;
9374;SDS011;4727;51.202;6.344;2023-08-31T10:36:00;2.03;;;1.50;;
9374;SDS011;4727;51.202;6.344;2023-08-31T10:38:27;1.83;;;1.70;;
9374;SDS011;4727;51.202;6.344;2023-08-31T10:44:17;1.80;;;1.70;;
9374;SDS011;4727;51.202;6.344;2023-08-31T10:46:36;2.97;;;1.30;;
9374;SDS011;4727;51.202;6.344;2023-08-31T10:51:37;1.77;;;1.50;;
9374;SDS011;4727;51.202;6.344;2023-08-31T10:54:04;2.77;;;1.87;;
9374;SDS011;4727;51.202;6.344;2023-08-31T10:56:31;1.63;;;1.53;;
9374;SDS011;4727;51.202;6.344;2023-08-31T10:58:57;2.53;;;1.87;;
9374;SDS011;4727;51.202;6.344;2023-08-31T11:04:16;2.10;;;1.90;;
9374;SDS011;4727;51.202;6.344;2023-08-31T11:06:42;2.07;;;1.60;;
9374;SDS011;4727;51.202;6.344;2023-08-31T11:09:17;1.83;;;1.73;;
9374;SDS011;4727;51.202;6.344;2023-08-31T11:11:44;2.40;;;2.30;;
9374;SDS011;4727;51.202;6.344;2023-08-31T11:14:10;3.80;;;1.77;;
9374;SDS011;4727;51.202;6.344;2023-08-31T11:16:39;3.43;;;2.03;;
9374;SDS011;4727;51.202;6.344;2023-08-31T11:19:05;1.93;;;1.60;;
9374;SDS011;4727;51.202;6.344;2023-08-31T11:21:31;1.50;;;1.40;;
9374;SDS011;4727;51.202;6.344;2023-08-31T11:23:57;1.40;;;1.30;;
9374;SDS011;4727;51.202;6.344;2023-08-31T11:26:26;2.80;;;2.30;;
9374;SDS011;4727;51.202;6.344;2023-08-31T11:28:55;3.43;;;1.60;;
9374;SDS011;4727;51.202;6.344;2023-08-31T11:31:24;1.73;;;1.63;;
9374;SDS011;4727;51.202;6.344;2023-08-31T11:33:50;2.10;;;1.70;;
9374;SDS011;4727;51.202;6.344;2023-08-31T11:36:16;1.63;;;1.53;;
9374;SDS011;4727;51.202;6.344;2023-08-31T11:38:43;2.57;;;2.00;;
9374;SDS011;4727;51.202;6.344;2023-08-31T11:41:09;2.37;;;1.90;;
9374;SDS011;4727;51.202;6.344;2023-08-31T11:43:35;2.23;;;1.93;;
9374;SDS011;4727;51.202;6.344;2023-08-31T11:46:01;1.80;;;1.70;;
9374;SDS011;4727;51.202;6.344;2023-08-31T11:48:28;2.87;;;1.80;;
9374;SDS011;4727;51.202;6.344;2023-08-31T11:50:54;2.63;;;1.73;;
9374;SDS011;4727;51.202;6.344;2023-08-31T11:53:20;2.73;;;1.90;;
9374;SDS011;4727;51.202;6.344;2023-08-31T11:55:50;1.50;;;1.50;;
9374;SDS011;4727;51.202;6.344;2023-08-31T11:58:16;1.63;;;1.53;;
9374;SDS011;4727;51.202;6.344;2023-08-31T12:00:42;1.60;;;1.50;;
9374;SDS011;4727;51.202;6.344;2023-08-31T12:03:08;1.43;;;1.40;;
9374;SDS011;4727;51.202;6.344;2023-08-31T12:05:47;2.10;;;1.63;;
9374;SDS011;4727;51.202;6.344;2023-08-31T12:08:14;4.73;;;1.63;;
9374;SDS011;4727;51.202;6.344;2023-08-31T12:10:41;3.83;;;1.43;;
9374;SDS011;4727;51.202;6.344;2023-08-31T12:13:09;1.10;;;1.10;;
9374;SDS011;4727;51.202;6.344;2023-08-31T12:15:36;1.63;;;1.53;;
9374;SDS011;4727;51.202;6.344;2023-08-31T12:18:11;2.67;;;1.47;;
9374;SDS011;4727;51.202;6.344;2023-08-31T12:20:48;1.40;;;1.30;;
9374;SDS011;4727;51.202;6.344;2023-08-31T12:23:18;2.87;;;1.80;;
9374;SDS011;4727;51.202;6.344;2023-08-31T12:25:47;1.67;;;1.57;;
9374;SDS011;4727;51.202;6.344;2023-08-31T12:28:13;1.97;;;1.87;;
9374;SDS011;4727;51.202;6.344;2023-08-31T12:30:41;1.43;;;1.30;;
9374;SDS011;4727;51.202;6.344;2023-08-31T12:33:11;2.33;;;1.60;;
9374;SDS011;4727;51.202;6.344;2023-08-31T12:35:37;1.30;;;1.20;;
9374;SDS011;4727;51.202;6.344;2023-08-31T12:38:03;2.33;;;1.20;;
9374;SDS011;4727;51.202;6.344;2023-08-31T12:40:29;2.73;;;1.67;;
9374;SDS011;4727;51.202;6.344;2023-08-31T12:42:54;1.73;;;1.20;;
9374;SDS011;4727;51.202;6.344;2023-08-31T12:45:20;1.23;;;1.10;;
9374;SDS011;4727;51.202;6.344;2023-08-31T12:47:46;1.70;;;1.60;;
9374;SDS011;4727;51.202;6.344;2023-08-31T12:50:12;1.20;;;1.20;;
9374;SDS011;4727;51.202;6.344;2023-08-31T12:52:38;1.97;;;1.20;;
9374;SDS011;4727;51.202;6.344;2023-08-31T12:55:09;1.73;;;1.60;;
9374;SDS011;4727;51.202;6.344;2023-08-31T12:57:35;1.30;;;1.00;;
9374;SDS011;4727;51.202;6.344;2023-08-31T13:00:02;1.40;;;1.30;;
9374;SDS011;4727;51.202;6.344;2023-08-31T13:02:34;2.43;;;1.03;;
9374;SDS011;4727;51.202;6.344;2023-08-31T13:04:59;1.87;;;1.37;;
9374;SDS011;4727;51.202;6.344;2023-08-31T13:07:25;1.07;;;0.97;;
9374;SDS011;4727;51.202;6.344;2023-08-31T13:09:51;1.70;;;1.13;;
9374;SDS011;4727;51.202;6.344;2023-08-31T13:12:17;2.27;;;1.00;;
9374;SDS011;4727;51.202;6.344;2023-08-31T13:14:43;1.27;;;1.20;;
9374;SDS011;4727;51.202;6.344;2023-08-31T13:17:09;1.07;;;0.93;;
9374;SDS011;4727;51.202;6.344;2023-08-31T13:19:35;1.20;;;1.10;;
9374;SDS011;4727;51.202;6.344;2023-08-31T13:22:01;1.00;;;0.73;;
9374;SDS011;4727;51.202;6.344;2023-08-31T13:24:27;1.77;;;0.93;;
9374;SDS011;4727;51.202;6.344;2023-08-31T13:26:53;2.07;;;1.33;;
9374;SDS011;4727;51.202;6.344;2023-08-31T13:29:20;1.27;;;1.07;;
9374;SDS011;4727;51.202;6.344;2023-08-31T13:31:46;1.40;;;0.97;;
9374;SDS011;4727;51.202;6.344;2023-08-31T13:34:12;1.20;;;1.10;;
9374;SDS011;4727;51.202;6.344;2023-08-31T13:36:40;1.30;;;1.20;;
9374;SDS011;4727;51.202;6.344;2023-08-31T13:39:06;1.47;;;1.37;;
9374;SDS011;4727;51.202;6.344;2023-08-31T13:41:32;1.07;;;1.07;;
9374;SDS011;4727;51.202;6.344;2023-08-31T13:43:58;1.73;;;1.47;;
9374;SDS011;4727;51.202;6.344;2023-08-31T13:46:24;2.70;;;1.20;;
9374;SDS011;4727;51.202;6.344;2023-08-31T13:48:50;1.07;;;1.03;;
9374;SDS011;4727;51.202;6.344;2023-08-31T13:51:16;0.93;;;0.93;;
9374;SDS011;4727;51.202;6.344;2023-08-31T13:53:42;1.30;;;1.20;;
9374;SDS011;4727;51.202;6.344;2023-08-31T13:56:08;2.20;;;1.53;;
9374;SDS011;4727;51.202;6.344;2023-08-31T13:58:34;2.90;;;1.23;;
9374;SDS011;4727;51.202;6.344;2023-08-31T14:01:00;2.83;;;1.63;;
9374;SDS011;4727;51.202;6.344;2023-08-31T14:03:28;1.60;;;1.50;;
9374;SDS011;4727;51.202;6.344;2023-08-31T14:05:54;1.70;;;1.60;;
9374;SDS011;4727;51.202;6.344;2023-08-31T14:08:20;1.83;;;1.20;;
9374;SDS011;4727;51.202;6.344;2023-08-31T14:10:46;3.10;;;1.57;;
9374;SDS011;4727;51.202;6.344;2023-08-31T14:13:12;1.07;;;1.07;;
9374;SDS011;4727;51.202;6.344;2023-08-31T14:15:38;1.73;;;1.37;;
9374;SDS011;4727;51.202;6.344;2023-08-31T14:18:11;1.73;;;1.43;;
9374;SDS011;4727;51.202;6.344;2023-08-31T14:20:37;2.23;;;1.73;;
9374;SDS011;4727;51.202;6.344;2023-08-31T14:23:03;2.30;;;1.40;;
9374;SDS011;4727;51.202;6.344;2023-08-31T14:25:29;1.60;;;1.43;;
9374;SDS011;4727;51.202;6.344;2023-08-31T14:28:03;1.23;;;1.23;;
9374;SDS011;4727;51.202;6.344;2023-08-31T14:30:29;1.83;;;1.73;;
9374;SDS011;4727;51.202;6.344;2023-08-31T14:32:55;1.57;;;1.47;;
9374;SDS011;4727;51.202;6.344;2023-08-31T14:35:21;3.80;;;1.57;;
9374;SDS011;4727;51.202;6.344;2023-08-31T14:37:47;1.63;;;1.53;;
9374;SDS011;4727;51.202;6.344;2023-08-31T14:40:13;1.23;;;1.13;;
9374;SDS011;4727;51.202;6.344;2023-08-31T14:42:39;2.37;;;1.33;;
9374;SDS011;4727;51.202;6.344;2023-08-31T14:45:05;1.53;;;1.50;;
9374;SDS011;4727;51.202;6.344;2023-08-31T14:47:31;2.73;;;1.93;;
9374;SDS011;4727;51.202;6.344;2023-08-31T14:49:57;1.60;;;1.60;;
9374;SDS011;4727;51.202;6.344;2023-08-31T14:52:23;1.30;;;1.20;;
9374;SDS011;4727;51.202;6.344;2023-08-31T14:54:49;1.67;;;1.57;;
9374;SDS011;4727;51.202;6.344;2023-08-31T14:57:14;1.67;;;1.57;;
9374;SDS011;4727;51.202;6.344;2023-08-31T14:59:40;1.63;;;1.53;;
9374;SDS011;4727;51.202;6.344;2023-08-31T15:02:07;1.63;;;1.53;;
9374;SDS011;4727;51.202;6.344;2023-08-31T15:04:32;2.13;;;2.03;;
9374;SDS011;4727;51.202;6.344;2023-08-31T15:06:58;1.40;;;1.40;;
9374;SDS011;4727;51.202;6.344;2023-08-31T15:09:25;1.17;;;1.07;;
9374;SDS011;4727;51.202;6.344;2023-08-31T15:11:51;1.30;;;1.27;;
9374;SDS011;4727;51.202;6.344;2023-08-31T15:14:17;1.83;;;1.33;;
9374;SDS011;4727;51.202;6.344;2023-08-31T15:16:42;1.77;;;1.67;;
9374;SDS011;4727;51.202;6.344;2023-08-31T15:19:08;1.93;;;1.83;;
9374;SDS011;4727;51.202;6.344;2023-08-31T15:21:34;1.83;;;1.73;;
9374;SDS011;4727;51.202;6.344;2023-08-31T15:24:00;2.80;;;2.23;;
9374;SDS011;4727;51.202;6.344;2023-08-31T15:26:27;2.53;;;2.07;;
9374;SDS011;4727;51.202;6.344;2023-08-31T15:28:53;2.53;;;2.33;;
9374;SDS011;4727;51.202;6.344;2023-08-31T15:31:19;4.67;;;2.07;;
9374;SDS011;4727;51.202;6.344;2023-08-31T15:33:45;2.30;;;2.20;;